sensor_id;sensor_type;location;lat;lon;timestamp;P1;durP1;ratioP1;P2;durP2;ratioP2
19384;SDS011;9828;54.122;17.974;2023-05-19T00:04:11;1.70;;;1.10;;
19384;SDS011;9828;54.122;17.974;2023-05-19T00:09:33;2.47;;;1.13;;
19384;SDS011;9828;54.122;17.974;2023-05-19T00:14:55;2.30;;;1.40;;
19384;SDS011;9828;54.122;17.974;2023-05-19T00:20:16;2.07;;;1.30;;
19384;SDS011;9828;54.122;17.974;2023-05-19T00:25:37;3.17;;;1.40;;
19384;SDS011;9828;54.122;17.974;2023-05-19T00:30:58;2.10;;;1.40;;
19384;SDS011;9828;54.122;17.974;2023-05-19T00:36:20;2.60;;;1.50;;
19384;SDS011;9828;54.122;17.974;2023-05-19T00:41:41;5.50;;;1.97;;
19384;SDS011;9828;54.122;17.974;2023-05-19T00:47:03;4.37;;;2.53;;
19384;SDS011;9828;54.122;17.974;2023-05-19T00:52:25;7.77;;;2.73;;
19384;SDS011;9828;54.122;17.974;2023-05-19T00:57:46;3.47;;;2.63;;
19384;SDS011;9828;54.122;17.974;2023-05-19T01:03:09;3.93;;;2.00;;
19384;SDS011;9828;54.122;17.974;2023-05-19T01:08:33;2.10;;;1.60;;
19384;SDS011;9828;54.122;17.974;2023-05-19T01:13:55;4.90;;;1.97;;
19384;SDS011;9828;54.122;17.974;2023-05-19T01:35:44;2.07;;;1.60;;
19384;SDS011;9828;54.122;17.974;2023-05-19T01:41:07;2.07;;;1.37;;
19384;SDS011;9828;54.122;17.974;2023-05-19T01:46:30;4.20;;;1.93;;
19384;SDS011;9828;54.122;17.974;2023-05-19T01:51:51;5.93;;;2.83;;
19384;SDS011;9828;54.122;17.974;2023-05-19T02:08:26;3.27;;;1.50;;
19384;SDS011;9828;54.122;17.974;2023-05-19T02:13:55;1.93;;;0.90;;
19384;SDS011;9828;54.122;17.974;2023-05-19T02:19:20;3.27;;;1.00;;
19384;SDS011;9828;54.122;17.974;2023-05-19T02:24:47;1.80;;;1.17;;
19384;SDS011;9828;54.122;17.974;2023-05-19T02:30:10;2.87;;;1.10;;
19384;SDS011;9828;54.122;17.974;2023-05-19T02:35:31;2.93;;;1.37;;
19384;SDS011;9828;54.122;17.974;2023-05-19T02:40:53;2.00;;;1.03;;
19384;SDS011;9828;54.122;17.974;2023-05-19T02:46:14;3.70;;;1.30;;
19384;SDS011;9828;54.122;17.974;2023-05-19T02:51:35;2.57;;;1.33;;
19384;SDS011;9828;54.122;17.974;2023-05-19T02:56:57;1.80;;;1.20;;
19384;SDS011;9828;54.122;17.974;2023-05-19T03:02:31;3.87;;;1.40;;
19384;SDS011;9828;54.122;17.974;2023-05-19T03:07:53;3.13;;;1.50;;
19384;SDS011;9828;54.122;17.974;2023-05-19T03:13:14;3.43;;;1.73;;
19384;SDS011;9828;54.122;17.974;2023-05-19T03:18:36;4.07;;;2.30;;
19384;SDS011;9828;54.122;17.974;2023-05-19T03:23:57;29.07;;;13.03;;
19384;SDS011;9828;54.122;17.974;2023-05-19T03:29:18;21.37;;;9.50;;
19384;SDS011;9828;54.122;17.974;2023-05-19T03:34:41;6.20;;;2.70;;
19384;SDS011;9828;54.122;17.974;2023-05-19T03:40:03;7.23;;;1.80;;
19384;SDS011;9828;54.122;17.974;2023-05-19T03:45:28;20.77;;;10.87;;
19384;SDS011;9828;54.122;17.974;2023-05-19T03:50:52;7.00;;;3.73;;
19384;SDS011;9828;54.122;17.974;2023-05-19T03:56:18;5.53;;;2.23;;
19384;SDS011;9828;54.122;17.974;2023-05-19T04:01:42;3.47;;;1.90;;
19384;SDS011;9828;54.122;17.974;2023-05-19T04:07:03;4.97;;;2.57;;
19384;SDS011;9828;54.122;17.974;2023-05-19T04:12:25;3.50;;;1.80;;
19384;SDS011;9828;54.122;17.974;2023-05-19T04:17:45;2.77;;;1.60;;
19384;SDS011;9828;54.122;17.974;2023-05-19T04:23:07;3.70;;;1.77;;
19384;SDS011;9828;54.122;17.974;2023-05-19T04:28:28;4.83;;;2.00;;
19384;SDS011;9828;54.122;17.974;2023-05-19T04:33:49;4.90;;;2.37;;
19384;SDS011;9828;54.122;17.974;2023-05-19T04:39:14;4.23;;;2.40;;
19384;SDS011;9828;54.122;17.974;2023-05-19T04:44:38;3.07;;;1.80;;
19384;SDS011;9828;54.122;17.974;2023-05-19T04:49:59;5.43;;;2.57;;
19384;SDS011;9828;54.122;17.974;2023-05-19T04:55:21;4.80;;;2.67;;
19384;SDS011;9828;54.122;17.974;2023-05-19T05:00:42;2.57;;;1.80;;
19384;SDS011;9828;54.122;17.974;2023-05-19T05:06:04;3.60;;;2.00;;
19384;SDS011;9828;54.122;17.974;2023-05-19T05:11:26;1.90;;;1.50;;
19384;SDS011;9828;54.122;17.974;2023-05-19T05:16:48;4.47;;;1.60;;
19384;SDS011;9828;54.122;17.974;2023-05-19T05:22:15;2.47;;;1.60;;
19384;SDS011;9828;54.122;17.974;2023-05-19T05:27:36;4.50;;;1.63;;
19384;SDS011;9828;54.122;17.974;2023-05-19T05:33:00;3.37;;;1.53;;
19384;SDS011;9828;54.122;17.974;2023-05-19T05:38:29;2.23;;;1.53;;
19384;SDS011;9828;54.122;17.974;2023-05-19T05:43:51;1.80;;;1.10;;
19384;SDS011;9828;54.122;17.974;2023-05-19T05:49:13;1.70;;;1.13;;
19384;SDS011;9828;54.122;17.974;2023-05-19T05:54:37;2.23;;;1.10;;
19384;SDS011;9828;54.122;17.974;2023-05-19T06:00:00;4.10;;;1.30;;
19384;SDS011;9828;54.122;17.974;2023-05-19T06:05:23;1.65;;;1.10;;
19384;SDS011;9828;54.122;17.974;2023-05-19T06:10:46;4.75;;;1.75;;
19384;SDS011;9828;54.122;17.974;2023-05-19T06:16:09;1.95;;;1.00;;
19384;SDS011;9828;54.122;17.974;2023-05-19T06:21:37;4.75;;;1.20;;
19384;SDS011;9828;54.122;17.974;2023-05-19T06:26:58;4.82;;;1.70;;
19384;SDS011;9828;54.122;17.974;2023-05-19T06:32:19;4.93;;;1.13;;
19384;SDS011;9828;54.122;17.974;2023-05-19T06:37:41;2.45;;;1.00;;
19384;SDS011;9828;54.122;17.974;2023-05-19T06:43:02;4.70;;;1.27;;
19384;SDS011;9828;54.122;17.974;2023-05-19T06:48:45;3.58;;;1.00;;
19384;SDS011;9828;54.122;17.974;2023-05-19T06:54:08;2.78;;;1.15;;
19384;SDS011;9828;54.122;17.974;2023-05-19T06:59:34;1.92;;;1.00;;
19384;SDS011;9828;54.122;17.974;2023-05-19T07:04:57;7.72;;;1.40;;
19384;SDS011;9828;54.122;17.974;2023-05-19T07:10:19;3.08;;;1.20;;
19384;SDS011;9828;54.122;17.974;2023-05-19T07:15:42;5.15;;;1.40;;
19384;SDS011;9828;54.122;17.974;2023-05-19T07:21:03;2.10;;;1.00;;
19384;SDS011;9828;54.122;17.974;2023-05-19T07:26:27;7.28;;;2.13;;
19384;SDS011;9828;54.122;17.974;2023-05-19T07:31:48;4.13;;;2.20;;
19384;SDS011;9828;54.122;17.974;2023-05-19T07:37:13;2.92;;;1.05;;
19384;SDS011;9828;54.122;17.974;2023-05-19T07:42:35;5.05;;;1.05;;
19384;SDS011;9828;54.122;17.974;2023-05-19T07:47:56;2.95;;;1.17;;
19384;SDS011;9828;54.122;17.974;2023-05-19T07:53:17;3.97;;;1.40;;
19384;SDS011;9828;54.122;17.974;2023-05-19T07:58:39;1.83;;;1.23;;
19384;SDS011;9828;54.122;17.974;2023-05-19T08:04:00;3.00;;;1.00;;
19384;SDS011;9828;54.122;17.974;2023-05-19T08:09:22;1.48;;;0.90;;
19384;SDS011;9828;54.122;17.974;2023-05-19T08:14:43;3.25;;;1.20;;
19384;SDS011;9828;54.122;17.974;2023-05-19T08:20:05;1.65;;;0.98;;
19384;SDS011;9828;54.122;17.974;2023-05-19T08:25:29;3.22;;;1.00;;
19384;SDS011;9828;54.122;17.974;2023-05-19T08:30:50;2.47;;;1.25;;
19384;SDS011;9828;54.122;17.974;2023-05-19T08:36:14;3.33;;;1.50;;
19384;SDS011;9828;54.122;17.974;2023-05-19T08:41:35;2.13;;;1.55;;
19384;SDS011;9828;54.122;17.974;2023-05-19T08:46:58;5.70;;;2.97;;
19384;SDS011;9828;54.122;17.974;2023-05-19T08:52:26;6.00;;;2.30;;
19384;SDS011;9828;54.122;17.974;2023-05-19T08:57:56;2.53;;;1.30;;
19384;SDS011;9828;54.122;17.974;2023-05-19T09:03:18;3.28;;;1.35;;
19384;SDS011;9828;54.122;17.974;2023-05-19T09:08:43;4.00;;;2.30;;
19384;SDS011;9828;54.122;17.974;2023-05-19T09:14:04;5.93;;;2.08;;
19384;SDS011;9828;54.122;17.974;2023-05-19T09:19:27;7.72;;;3.00;;
19384;SDS011;9828;54.122;17.974;2023-05-19T09:24:48;4.20;;;2.20;;
19384;SDS011;9828;54.122;17.974;2023-05-19T09:30:09;4.75;;;1.88;;
19384;SDS011;9828;54.122;17.974;2023-05-19T09:35:31;2.05;;;1.27;;
19384;SDS011;9828;54.122;17.974;2023-05-19T09:40:57;7.88;;;1.65;;
19384;SDS011;9828;54.122;17.974;2023-05-19T09:46:20;4.28;;;1.65;;
19384;SDS011;9828;54.122;17.974;2023-05-19T09:51:48;3.58;;;2.10;;
19384;SDS011;9828;54.122;17.974;2023-05-19T09:57:10;1.95;;;0.70;;
19384;SDS011;9828;54.122;17.974;2023-05-19T10:02:31;4.60;;;2.10;;
19384;SDS011;9828;54.122;17.974;2023-05-19T10:07:53;3.10;;;1.42;;
19384;SDS011;9828;54.122;17.974;2023-05-19T10:13:15;4.68;;;1.63;;
19384;SDS011;9828;54.122;17.974;2023-05-19T10:18:36;2.05;;;1.38;;
19384;SDS011;9828;54.122;17.974;2023-05-19T10:23:59;5.20;;;1.60;;
19384;SDS011;9828;54.122;17.974;2023-05-19T10:29:21;4.18;;;1.58;;
19384;SDS011;9828;54.122;17.974;2023-05-19T10:46:22;3.90;;;1.90;;
19384;SDS011;9828;54.122;17.974;2023-05-19T10:51:44;2.13;;;1.27;;
19384;SDS011;9828;54.122;17.974;2023-05-19T10:57:06;5.45;;;1.38;;
19384;SDS011;9828;54.122;17.974;2023-05-19T11:02:39;10.93;;;2.00;;
19384;SDS011;9828;54.122;17.974;2023-05-19T11:08:04;2.58;;;1.25;;
19384;SDS011;9828;54.122;17.974;2023-05-19T11:13:31;2.30;;;1.50;;
19384;SDS011;9828;54.122;17.974;2023-05-19T11:18:53;4.68;;;1.10;;
19384;SDS011;9828;54.122;17.974;2023-05-19T11:29:56;2.88;;;1.55;;
19384;SDS011;9828;54.122;17.974;2023-05-19T11:35:28;3.40;;;1.48;;
19384;SDS011;9828;54.122;17.974;2023-05-19T11:40:53;3.33;;;1.95;;
19384;SDS011;9828;54.122;17.974;2023-05-19T11:46:15;2.50;;;1.65;;
19384;SDS011;9828;54.122;17.974;2023-05-19T11:51:37;3.55;;;2.00;;
19384;SDS011;9828;54.122;17.974;2023-05-19T11:57:00;1.88;;;1.27;;
19384;SDS011;9828;54.122;17.974;2023-05-19T12:02:22;3.05;;;1.70;;
19384;SDS011;9828;54.122;17.974;2023-05-19T12:07:45;3.33;;;1.20;;
19384;SDS011;9828;54.122;17.974;2023-05-19T12:13:08;1.55;;;1.33;;
19384;SDS011;9828;54.122;17.974;2023-05-19T12:18:30;1.60;;;1.20;;
19384;SDS011;9828;54.122;17.974;2023-05-19T12:23:57;2.22;;;1.30;;
19384;SDS011;9828;54.122;17.974;2023-05-19T12:29:19;2.85;;;1.50;;
19384;SDS011;9828;54.122;17.974;2023-05-19T12:34:40;2.65;;;1.70;;
19384;SDS011;9828;54.122;17.974;2023-05-19T12:40:02;5.00;;;1.38;;
19384;SDS011;9828;54.122;17.974;2023-05-19T12:45:23;3.75;;;1.52;;
19384;SDS011;9828;54.122;17.974;2023-05-19T12:50:47;3.60;;;1.10;;
19384;SDS011;9828;54.122;17.974;2023-05-19T12:56:15;3.25;;;1.73;;
19384;SDS011;9828;54.122;17.974;2023-05-19T13:01:36;3.13;;;1.65;;
19384;SDS011;9828;54.122;17.974;2023-05-19T13:06:57;3.03;;;1.73;;
19384;SDS011;9828;54.122;17.974;2023-05-19T13:12:18;8.60;;;1.52;;
19384;SDS011;9828;54.122;17.974;2023-05-19T13:17:40;5.88;;;1.90;;
19384;SDS011;9828;54.122;17.974;2023-05-19T13:23:01;6.35;;;2.17;;
19384;SDS011;9828;54.122;17.974;2023-05-19T13:28:22;2.65;;;1.42;;
19384;SDS011;9828;54.122;17.974;2023-05-19T13:33:44;4.45;;;1.75;;
19384;SDS011;9828;54.122;17.974;2023-05-19T13:39:04;9.77;;;3.03;;
19384;SDS011;9828;54.122;17.974;2023-05-19T13:44:26;7.68;;;2.75;;
19384;SDS011;9828;54.122;17.974;2023-05-19T13:49:47;6.28;;;2.10;;
19384;SDS011;9828;54.122;17.974;2023-05-19T13:55:08;3.10;;;1.45;;
19384;SDS011;9828;54.122;17.974;2023-05-19T14:00:30;4.78;;;2.60;;
19384;SDS011;9828;54.122;17.974;2023-05-19T14:05:51;7.55;;;2.97;;
19384;SDS011;9828;54.122;17.974;2023-05-19T14:11:18;7.85;;;4.75;;
19384;SDS011;9828;54.122;17.974;2023-05-19T14:16:41;10.07;;;5.82;;
19384;SDS011;9828;54.122;17.974;2023-05-19T14:22:02;8.85;;;5.70;;
19384;SDS011;9828;54.122;17.974;2023-05-19T14:27:23;29.80;;;16.48;;
19384;SDS011;9828;54.122;17.974;2023-05-19T14:32:44;4.85;;;2.60;;
19384;SDS011;9828;54.122;17.974;2023-05-19T14:38:05;2.92;;;2.05;;
19384;SDS011;9828;54.122;17.974;2023-05-19T14:43:27;3.33;;;2.13;;
19384;SDS011;9828;54.122;17.974;2023-05-19T14:48:48;4.38;;;2.33;;
19384;SDS011;9828;54.122;17.974;2023-05-19T14:54:09;4.72;;;3.17;;
19384;SDS011;9828;54.122;17.974;2023-05-19T14:59:29;3.53;;;2.38;;
19384;SDS011;9828;54.122;17.974;2023-05-19T15:04:50;12.93;;;5.18;;
19384;SDS011;9828;54.122;17.974;2023-05-19T15:10:11;12.65;;;3.30;;
19384;SDS011;9828;54.122;17.974;2023-05-19T15:15:32;3.42;;;2.50;;
19384;SDS011;9828;54.122;17.974;2023-05-19T15:20:54;5.75;;;3.38;;
19384;SDS011;9828;54.122;17.974;2023-05-19T15:26:15;7.80;;;3.45;;
19384;SDS011;9828;54.122;17.974;2023-05-19T15:31:36;7.50;;;3.85;;
19384;SDS011;9828;54.122;17.974;2023-05-19T15:36:57;5.82;;;3.10;;
19384;SDS011;9828;54.122;17.974;2023-05-19T15:42:18;2.28;;;1.50;;
19384;SDS011;9828;54.122;17.974;2023-05-19T15:47:39;4.28;;;2.10;;
19384;SDS011;9828;54.122;17.974;2023-05-19T15:53:00;3.58;;;1.88;;
19384;SDS011;9828;54.122;17.974;2023-05-19T15:58:21;4.25;;;3.00;;
19384;SDS011;9828;54.122;17.974;2023-05-19T16:03:43;4.82;;;2.40;;
19384;SDS011;9828;54.122;17.974;2023-05-19T16:09:05;4.30;;;2.78;;
19384;SDS011;9828;54.122;17.974;2023-05-19T16:14:26;3.45;;;2.40;;
19384;SDS011;9828;54.122;17.974;2023-05-19T16:19:50;3.15;;;1.85;;
19384;SDS011;9828;54.122;17.974;2023-05-19T16:25:11;3.80;;;2.45;;
19384;SDS011;9828;54.122;17.974;2023-05-19T16:30:32;4.75;;;3.20;;
19384;SDS011;9828;54.122;17.974;2023-05-19T16:35:53;6.05;;;3.17;;
19384;SDS011;9828;54.122;17.974;2023-05-19T16:41:15;4.00;;;2.20;;
19384;SDS011;9828;54.122;17.974;2023-05-19T16:46:36;6.32;;;2.70;;
19384;SDS011;9828;54.122;17.974;2023-05-19T16:51:57;4.90;;;3.38;;
19384;SDS011;9828;54.122;17.974;2023-05-19T16:57:18;5.88;;;3.35;;
19384;SDS011;9828;54.122;17.974;2023-05-19T17:02:39;8.07;;;4.78;;
19384;SDS011;9828;54.122;17.974;2023-05-19T17:08:01;29.05;;;15.88;;
19384;SDS011;9828;54.122;17.974;2023-05-19T17:13:22;161.20;;;77.55;;
19384;SDS011;9828;54.122;17.974;2023-05-19T17:18:43;115.32;;;52.78;;
19384;SDS011;9828;54.122;17.974;2023-05-19T17:24:04;68.72;;;31.48;;
19384;SDS011;9828;54.122;17.974;2023-05-19T17:29:26;26.67;;;12.90;;
19384;SDS011;9828;54.122;17.974;2023-05-19T17:34:47;14.13;;;7.43;;
19384;SDS011;9828;54.122;17.974;2023-05-19T17:40:08;14.70;;;7.78;;
19384;SDS011;9828;54.122;17.974;2023-05-19T17:45:29;10.23;;;6.30;;
19384;SDS011;9828;54.122;17.974;2023-05-19T17:50:51;9.32;;;5.47;;
19384;SDS011;9828;54.122;17.974;2023-05-19T17:56:11;8.32;;;4.55;;
19384;SDS011;9828;54.122;17.974;2023-05-19T18:01:33;13.82;;;5.10;;
19384;SDS011;9828;54.122;17.974;2023-05-19T18:06:54;8.43;;;4.80;;
19384;SDS011;9828;54.122;17.974;2023-05-19T18:12:16;7.40;;;3.90;;
19384;SDS011;9828;54.122;17.974;2023-05-19T18:17:37;4.40;;;2.85;;
19384;SDS011;9828;54.122;17.974;2023-05-19T18:22:57;3.55;;;2.92;;
19384;SDS011;9828;54.122;17.974;2023-05-19T18:28:19;4.07;;;2.83;;
19384;SDS011;9828;54.122;17.974;2023-05-19T18:33:40;6.05;;;3.55;;
19384;SDS011;9828;54.122;17.974;2023-05-19T18:39:01;6.40;;;3.10;;
19384;SDS011;9828;54.122;17.974;2023-05-19T18:44:24;6.45;;;3.03;;
19384;SDS011;9828;54.122;17.974;2023-05-19T18:49:45;5.43;;;2.90;;
19384;SDS011;9828;54.122;17.974;2023-05-19T18:55:06;6.03;;;3.15;;
19384;SDS011;9828;54.122;17.974;2023-05-19T19:00:27;5.53;;;3.50;;
19384;SDS011;9828;54.122;17.974;2023-05-19T19:05:55;5.63;;;3.72;;
19384;SDS011;9828;54.122;17.974;2023-05-19T19:11:17;5.93;;;4.50;;
19384;SDS011;9828;54.122;17.974;2023-05-19T19:16:38;7.03;;;4.88;;
19384;SDS011;9828;54.122;17.974;2023-05-19T19:21:59;7.45;;;3.92;;
19384;SDS011;9828;54.122;17.974;2023-05-19T19:27:20;7.53;;;5.03;;
19384;SDS011;9828;54.122;17.974;2023-05-19T19:32:41;12.95;;;6.78;;
19384;SDS011;9828;54.122;17.974;2023-05-19T19:38:01;9.20;;;4.90;;
19384;SDS011;9828;54.122;17.974;2023-05-19T19:43:23;9.82;;;4.75;;
19384;SDS011;9828;54.122;17.974;2023-05-19T19:48:44;6.88;;;3.90;;
19384;SDS011;9828;54.122;17.974;2023-05-19T19:54:05;8.10;;;3.97;;
19384;SDS011;9828;54.122;17.974;2023-05-19T19:59:26;5.70;;;3.97;;
19384;SDS011;9828;54.122;17.974;2023-05-19T20:04:47;7.03;;;4.15;;
19384;SDS011;9828;54.122;17.974;2023-05-19T20:10:08;6.93;;;4.00;;
19384;SDS011;9828;54.122;17.974;2023-05-19T20:15:30;6.93;;;4.32;;
19384;SDS011;9828;54.122;17.974;2023-05-19T20:20:51;4.78;;;3.20;;
19384;SDS011;9828;54.122;17.974;2023-05-19T20:26:13;8.27;;;3.72;;
19384;SDS011;9828;54.122;17.974;2023-05-19T20:31:34;6.82;;;4.10;;
19384;SDS011;9828;54.122;17.974;2023-05-19T20:36:55;5.82;;;4.22;;
19384;SDS011;9828;54.122;17.974;2023-05-19T20:42:16;6.70;;;3.80;;
19384;SDS011;9828;54.122;17.974;2023-05-19T20:47:37;5.80;;;3.63;;
19384;SDS011;9828;54.122;17.974;2023-05-19T20:52:59;8.60;;;3.83;;
19384;SDS011;9828;54.122;17.974;2023-05-19T20:58:20;7.00;;;4.40;;
19384;SDS011;9828;54.122;17.974;2023-05-19T21:03:41;7.00;;;4.27;;
19384;SDS011;9828;54.122;17.974;2023-05-19T21:09:02;7.85;;;4.68;;
19384;SDS011;9828;54.122;17.974;2023-05-19T21:14:25;5.72;;;3.75;;
19384;SDS011;9828;54.122;17.974;2023-05-19T21:19:46;7.93;;;3.72;;
19384;SDS011;9828;54.122;17.974;2023-05-19T21:25:08;8.73;;;4.17;;
19384;SDS011;9828;54.122;17.974;2023-05-19T21:30:29;8.50;;;4.40;;
19384;SDS011;9828;54.122;17.974;2023-05-19T21:35:50;8.50;;;3.60;;
19384;SDS011;9828;54.122;17.974;2023-05-19T21:41:11;5.40;;;3.00;;
19384;SDS011;9828;54.122;17.974;2023-05-19T21:46:32;5.35;;;3.33;;
19384;SDS011;9828;54.122;17.974;2023-05-19T21:51:53;4.90;;;2.85;;
19384;SDS011;9828;54.122;17.974;2023-05-19T21:57:15;5.75;;;3.00;;
19384;SDS011;9828;54.122;17.974;2023-05-19T22:02:36;4.35;;;2.80;;
19384;SDS011;9828;54.122;17.974;2023-05-19T22:07:57;3.72;;;2.40;;
19384;SDS011;9828;54.122;17.974;2023-05-19T22:13:18;3.87;;;2.37;;
19384;SDS011;9828;54.122;17.974;2023-05-19T22:18:40;4.07;;;2.53;;
19384;SDS011;9828;54.122;17.974;2023-05-19T22:24:00;5.93;;;2.80;;
19384;SDS011;9828;54.122;17.974;2023-05-19T22:29:22;8.20;;;3.83;;
19384;SDS011;9828;54.122;17.974;2023-05-19T22:34:43;5.72;;;2.80;;
19384;SDS011;9828;54.122;17.974;2023-05-19T22:40:04;3.40;;;2.10;;
19384;SDS011;9828;54.122;17.974;2023-05-19T22:45:26;4.07;;;2.30;;
19384;SDS011;9828;54.122;17.974;2023-05-19T22:50:47;4.75;;;2.00;;
19384;SDS011;9828;54.122;17.974;2023-05-19T22:56:08;4.25;;;2.22;;
19384;SDS011;9828;54.122;17.974;2023-05-19T23:01:29;7.45;;;2.92;;
19384;SDS011;9828;54.122;17.974;2023-05-19T23:06:50;4.78;;;2.70;;
19384;SDS011;9828;54.122;17.974;2023-05-19T23:12:11;7.78;;;2.30;;
19384;SDS011;9828;54.122;17.974;2023-05-19T23:17:32;4.97;;;2.47;;
19384;SDS011;9828;54.122;17.974;2023-05-19T23:22:54;5.70;;;2.13;;
19384;SDS011;9828;54.122;17.974;2023-05-19T23:28:15;6.72;;;1.90;;
19384;SDS011;9828;54.122;17.974;2023-05-19T23:33:36;4.93;;;2.40;;
19384;SDS011;9828;54.122;17.974;2023-05-19T23:38:58;2.85;;;1.75;;
19384;SDS011;9828;54.122;17.974;2023-05-19T23:44:20;3.25;;;1.88;;
19384;SDS011;9828;54.122;17.974;2023-05-19T23:49:41;2.92;;;1.60;;
19384;SDS011;9828;54.122;17.974;2023-05-19T23:55:02;2.00;;;1.20;;
